createdAt,value
2022-09-12T00:00:06.522Z,101564.78
2022-09-12T00:02:34.352Z,101562.09
2022-09-12T00:05:02.066Z,101558.50
2022-09-12T00:07:29.770Z,101562.66
2022-09-12T00:09:57.624Z,101583.66
2022-09-12T00:12:25.333Z,101635.41
2022-09-12T00:14:53.094Z,101690.56
2022-09-12T00:17:22.221Z,101681.47
2022-09-12T00:19:49.923Z,101661.94
2022-09-12T00:22:17.666Z,101678.13
2022-09-12T00:24:45.483Z,101670.44
2022-09-12T00:27:13.210Z,101649.53
2022-09-12T00:29:40.925Z,101659.59
2022-09-12T00:32:08.643Z,101652.13
2022-09-12T00:34:37.894Z,101652.94
2022-09-12T00:37:05.747Z,101647.50
2022-09-12T00:39:33.501Z,101649.78
2022-09-12T00:42:01.238Z,101635.66
2022-09-12T00:44:48.552Z,101632.59
2022-09-12T00:47:21.963Z,101636.19
2022-09-12T00:49:56.380Z,101634.66
2022-09-12T00:52:29.726Z,101637.63
2022-09-12T00:55:03.796Z,101635.94
2022-09-12T00:57:36.271Z,101629.31
2022-09-12T01:00:12.331Z,101626.31
2022-09-12T01:02:40.264Z,101635.78
2022-09-12T01:05:10.524Z,101640.56
2022-09-12T01:07:40.161Z,101632.19
2022-09-12T01:10:10.705Z,101618.31
2022-09-12T01:12:41.215Z,101618.25
2022-09-12T01:15:10.188Z,101633.03
2022-09-12T01:17:50.490Z,101621.72
2022-09-12T01:20:42.386Z,101617.69
2022-09-12T01:23:45.312Z,101625.53
2022-09-12T01:26:43.980Z,101598.13
2022-09-12T01:29:30.992Z,101605.22
2022-09-12T01:32:09.842Z,101636.56
2022-09-12T01:34:48.025Z,101654.88
2022-09-12T01:37:23.254Z,101653.59
2022-09-12T01:39:57.819Z,101630.03
2022-09-12T01:42:32.297Z,101617.50
2022-09-12T01:45:09.193Z,101592.66
2022-09-12T01:47:42.592Z,101600.78
2022-09-12T01:50:16.192Z,101634.13
2022-09-12T01:52:50.478Z,101659.25
2022-09-12T01:55:22.669Z,101645.91
2022-09-12T01:57:56.070Z,101648.00
2022-09-12T02:00:24.065Z,101702.97
2022-09-12T02:02:57.352Z,101696.78
2022-09-12T02:05:32.072Z,101681.03
2022-09-12T02:08:06.891Z,101658.53
2022-09-12T02:10:42.750Z,101663.50
2022-09-12T02:13:16.145Z,101667.16
2022-09-12T02:15:46.487Z,101678.69
2022-09-12T02:18:19.178Z,101685.38
2022-09-12T02:20:49.547Z,101689.03
2022-09-12T02:23:22.717Z,101693.53
2022-09-12T02:25:54.838Z,101713.69
2022-09-12T02:28:27.392Z,101743.31
2022-09-12T02:31:06.146Z,101755.69
2022-09-12T02:33:44.417Z,101766.47
2022-09-12T02:36:17.854Z,101769.94
2022-09-12T02:38:48.509Z,101780.19
2022-09-12T02:41:19.228Z,101785.75
2022-09-12T02:43:47.655Z,101793.31
2022-09-12T02:46:29.629Z,101790.91
2022-09-12T02:48:58.938Z,101785.38
2022-09-12T02:51:27.662Z,101794.16
2022-09-12T02:53:55.524Z,101792.53
2022-09-12T02:56:29.957Z,101784.78
2022-09-12T02:59:02.929Z,101776.44
2022-09-12T03:01:47.854Z,101762.97
2022-09-12T03:04:34.531Z,101752.19
2022-09-12T03:07:13.830Z,101747.63
2022-09-12T03:09:48.864Z,101737.78
2022-09-12T03:12:32.857Z,101720.34
2022-09-12T03:15:30.059Z,101717.47
2022-09-12T03:18:07.377Z,101717.84
2022-09-12T03:20:46.113Z,101717.06
2022-09-12T03:23:21.626Z,101711.22
2022-09-12T03:25:55.065Z,101693.38
2022-09-12T03:28:23.875Z,101678.03
2022-09-12T03:30:54.344Z,101699.88
2022-09-12T03:33:23.238Z,101709.94
2022-09-12T03:35:54.076Z,101680.66
2022-09-12T03:38:21.865Z,101666.22
2022-09-12T03:40:54.557Z,101656.84
2022-09-12T03:43:22.639Z,101663.59
2022-09-12T03:45:53.371Z,101655.41
2022-09-12T03:48:21.246Z,101653.88
2022-09-12T03:50:48.962Z,101664.97
2022-09-12T03:53:18.320Z,101662.97
2022-09-12T03:55:46.062Z,101635.84
2022-09-12T03:58:13.775Z,101632.00
2022-09-12T04:00:42.908Z,101596.00
2022-09-12T04:03:10.703Z,101575.03
2022-09-12T04:05:38.391Z,101568.03
2022-09-12T04:08:06.177Z,101565.69
2022-09-12T04:10:35.363Z,101560.97
2022-09-12T04:13:03.081Z,101542.09
2022-09-12T04:15:30.795Z,101528.09
2022-09-12T04:18:02.447Z,101500.88
2022-09-12T04:20:32.900Z,101505.38
2022-09-12T04:23:00.587Z,101520.22
2022-09-12T04:25:28.425Z,101544.34
2022-09-12T04:27:57.505Z,101547.72
2022-09-12T04:30:25.220Z,101571.47
2022-09-12T04:32:52.963Z,101560.28
2022-09-12T04:35:20.637Z,101551.34
2022-09-12T04:37:48.328Z,101532.72
2022-09-12T04:40:16.163Z,101554.31
2022-09-12T04:42:43.921Z,101578.13
2022-09-12T04:45:13.672Z,101608.50
2022-09-12T04:47:41.405Z,101623.06
2022-09-12T04:50:09.868Z,101631.75
2022-09-12T04:52:37.586Z,101631.41
2022-09-12T04:55:05.974Z,101615.88
2022-09-12T04:57:33.773Z,101600.28
2022-09-12T05:00:06.521Z,101582.78
2022-09-12T05:02:36.474Z,101580.03
2022-09-12T05:05:04.611Z,101597.25
2022-09-12T05:07:32.397Z,101612.53
2022-09-12T05:10:00.436Z,101619.00
2022-09-12T05:12:28.782Z,101621.75
2022-09-12T05:14:56.496Z,101626.91
2022-09-12T05:17:24.292Z,101643.19
2022-09-12T05:19:53.362Z,101650.13
2022-09-12T05:22:21.564Z,101668.09
2022-09-12T05:24:50.706Z,101672.94
2022-09-12T05:27:18.754Z,101656.25
2022-09-12T05:29:46.470Z,101673.09
2022-09-12T05:32:14.169Z,101688.44
2022-09-12T05:34:41.841Z,101671.47
2022-09-12T05:37:10.885Z,101665.25
2022-09-12T05:39:38.693Z,101670.09
2022-09-12T05:42:07.242Z,101663.66
2022-09-12T05:44:34.950Z,101667.66
2022-09-12T05:47:02.850Z,101671.03
2022-09-12T05:49:30.938Z,101676.75
2022-09-12T05:51:58.633Z,101673.84
2022-09-12T05:54:31.369Z,101667.06
2022-09-12T05:56:59.443Z,101664.66
2022-09-12T05:59:28.445Z,101659.78
2022-09-12T06:01:56.175Z,101637.19
2022-09-12T06:04:25.494Z,101617.72
2022-09-12T06:06:53.607Z,101626.59
2022-09-12T06:09:21.461Z,101630.34
2022-09-12T06:11:50.495Z,101651.38
2022-09-12T06:14:19.479Z,101647.13
2022-09-12T06:16:48.573Z,101658.16
2022-09-12T06:19:18.122Z,101675.03
2022-09-12T06:21:47.558Z,101666.25
2022-09-12T06:24:15.307Z,101654.91
2022-09-12T06:26:43.761Z,101635.00
2022-09-12T06:29:13.292Z,101621.81
2022-09-12T06:31:42.749Z,101612.75
2022-09-12T06:34:12.513Z,101598.72
2022-09-12T06:36:41.947Z,101590.78
2022-09-12T06:39:12.759Z,101565.84
2022-09-12T06:41:43.781Z,101528.50
2022-09-12T06:44:16.080Z,101523.97
2022-09-12T06:46:44.199Z,101511.63
2022-09-12T06:49:12.299Z,101473.91
2022-09-12T06:51:41.961Z,101432.41
2022-09-12T06:54:13.086Z,101403.91
2022-09-12T06:56:40.846Z,101405.22
2022-09-12T06:59:08.665Z,101368.06
2022-09-12T07:01:37.948Z,101329.50
2022-09-12T07:04:06.279Z,101302.47
2022-09-12T07:06:38.844Z,101274.06
2022-09-12T07:09:09.007Z,101278.19
2022-09-12T07:11:38.927Z,101259.31
2022-09-12T07:14:09.208Z,101254.25
2022-09-12T07:16:38.369Z,101259.91
2022-09-12T07:19:07.743Z,101261.03
2022-09-12T07:21:40.089Z,101255.28
2022-09-12T07:24:09.767Z,101241.16
2022-09-12T07:26:38.497Z,101239.09
2022-09-12T07:29:34.708Z,101233.53
2022-09-12T07:31:55.565Z,101213.53
2022-09-12T07:34:23.320Z,101192.56
2022-09-12T07:36:50.988Z,101181.84
2022-09-12T07:39:18.854Z,101174.78
2022-09-12T07:41:46.605Z,101172.66
2022-09-12T07:44:14.301Z,101161.56
2022-09-12T07:46:42.286Z,101162.59
2022-09-12T07:49:13.522Z,101171.63
2022-09-12T07:51:41.234Z,101184.19
2022-09-12T07:54:10.129Z,101188.25
2022-09-12T07:56:39.397Z,101190.94
2022-09-12T07:59:07.355Z,101209.97
2022-09-12T08:01:35.063Z,101223.78
2022-09-12T08:04:04.852Z,101271.00
2022-09-12T08:06:36.123Z,101320.06
2022-09-12T08:09:06.136Z,101337.84
2022-09-12T08:11:33.819Z,101391.31
2022-09-12T08:14:03.131Z,101431.63
2022-09-12T08:16:32.175Z,101481.34
2022-09-12T08:19:02.128Z,101511.53
2022-09-12T08:21:31.121Z,101482.28
2022-09-12T08:24:02.235Z,101528.91
2022-09-12T08:26:30.582Z,101528.59
2022-09-12T08:28:58.616Z,101523.00
2022-09-12T08:31:28.098Z,101524.03
2022-09-12T08:33:57.272Z,101496.22
2022-09-12T08:36:27.234Z,101532.50
2022-09-12T08:38:59.609Z,101523.22
2022-09-12T08:41:31.895Z,101536.34
2022-09-12T08:44:27.459Z,101536.41
2022-09-12T08:47:28.570Z,101528.59
2022-09-12T08:50:11.619Z,101499.38
2022-09-12T08:52:45.133Z,101526.09
2022-09-12T08:55:31.073Z,101533.47
2022-09-12T08:58:01.453Z,101530.22
2022-09-12T09:00:37.888Z,101547.91
2022-09-12T09:03:47.786Z,101518.78
2022-09-12T09:06:29.027Z,101501.44
2022-09-12T09:09:06.299Z,101496.09
2022-09-12T09:11:48.187Z,101485.38
2022-09-12T09:14:50.119Z,101492.44
2022-09-12T09:17:26.302Z,101489.41
2022-09-12T09:20:00.222Z,101466.78
2022-09-12T09:22:38.053Z,101457.13
2022-09-12T09:25:12.347Z,101527.69
2022-09-12T09:27:47.896Z,101525.19
2022-09-12T09:30:19.564Z,101531.69
2022-09-12T09:32:51.535Z,101502.78
2022-09-12T09:35:25.906Z,101482.00
2022-09-12T09:38:02.365Z,101440.81
2022-09-12T09:40:43.395Z,101472.41
2022-09-12T09:43:19.736Z,101454.88
2022-09-12T09:45:48.879Z,101523.72
2022-09-12T09:48:22.530Z,101578.00
2022-09-12T09:50:51.175Z,101592.59
2022-09-12T09:53:36.029Z,101619.69
2022-09-12T09:56:10.827Z,101610.34
2022-09-12T09:58:38.608Z,101604.22
2022-09-12T10:01:15.676Z,101604.47
2022-09-12T10:03:50.601Z,101610.84
2022-09-12T10:06:27.548Z,101608.84
2022-09-12T10:09:18.344Z,101597.94
2022-09-12T10:11:46.312Z,101612.97
2022-09-12T10:14:35.039Z,101618.69
2022-09-12T10:17:22.686Z,101621.69
2022-09-12T10:20:10.572Z,101613.75
2022-09-12T10:22:39.394Z,101607.31
2022-09-12T10:25:14.163Z,101610.16
2022-09-12T10:27:43.347Z,101611.78
2022-09-12T10:30:19.643Z,101614.53
2022-09-12T10:32:51.607Z,101605.41
2022-09-12T10:35:22.766Z,101599.59
2022-09-12T10:37:56.782Z,101605.56
2022-09-12T10:40:27.457Z,101606.44
2022-09-12T10:42:56.763Z,101605.19
2022-09-12T10:45:30.106Z,101585.06
2022-09-12T10:48:06.769Z,101592.53
2022-09-12T10:50:40.144Z,101586.72
2022-09-12T10:53:19.488Z,101569.31
2022-09-12T10:56:05.782Z,101586.81
2022-09-12T10:58:48.194Z,101577.94
2022-09-12T11:01:27.576Z,101584.72
2022-09-12T11:04:15.703Z,101583.75
2022-09-12T11:06:54.652Z,101580.34
2022-09-12T11:09:29.873Z,101591.00
2022-09-12T11:12:09.569Z,101596.00
2022-09-12T11:14:49.743Z,101585.66
2022-09-12T11:17:30.189Z,101591.78
2022-09-12T11:20:22.180Z,101593.31
2022-09-12T11:23:06.957Z,101598.75
2022-09-12T11:25:41.594Z,101596.78
2022-09-12T11:28:29.438Z,101586.53
2022-09-12T11:31:16.222Z,101592.63
2022-09-12T11:33:45.414Z,101594.69
2022-09-12T11:36:30.732Z,101599.63
2022-09-12T11:39:14.634Z,101584.94
2022-09-12T11:41:47.956Z,101591.31
2022-09-12T11:44:22.303Z,101592.84
2022-09-12T11:46:52.115Z,101588.25
2022-09-12T11:49:35.390Z,101588.47
2022-09-12T11:52:12.211Z,101594.22
2022-09-12T11:54:49.051Z,101587.81
2022-09-12T11:57:28.203Z,101589.25
2022-09-12T12:00:00.985Z,101588.19
2022-09-12T12:02:30.188Z,101586.03
2022-09-12T12:05:16.373Z,101584.72
2022-09-12T12:07:53.941Z,101588.91
2022-09-12T12:10:27.878Z,101592.13
2022-09-12T12:12:57.663Z,101571.22
2022-09-12T12:15:26.947Z,101576.22
2022-09-12T12:18:03.093Z,101570.72
2022-09-12T12:20:30.856Z,101573.56
2022-09-12T12:23:01.038Z,101568.63
2022-09-12T12:25:41.824Z,101570.28
2022-09-12T12:28:09.604Z,101564.19
2022-09-12T12:31:05.741Z,101558.78
2022-09-12T12:34:10.170Z,101557.00
2022-09-12T12:36:43.052Z,101554.38
2022-09-12T12:39:48.082Z,101550.00
2022-09-12T12:43:07.683Z,101545.94
2022-09-12T12:46:13.842Z,101538.59
2022-09-12T12:48:52.780Z,101544.94
2022-09-12T12:51:48.959Z,101540.78
2022-09-12T12:54:48.999Z,101535.47
2022-09-12T12:57:25.716Z,101546.94
2022-09-12T12:59:56.613Z,101546.25
2022-09-12T13:02:31.788Z,101536.44
2022-09-12T13:05:02.405Z,101530.34
2022-09-12T13:07:37.198Z,101501.00
2022-09-12T13:10:07.621Z,101470.28
2022-09-12T13:12:38.864Z,101453.25
2022-09-12T13:15:45.622Z,101467.69
2022-09-12T13:18:20.111Z,101449.84
2022-09-12T13:20:52.361Z,101442.59
2022-09-12T13:23:25.305Z,101451.16
2022-09-12T13:25:57.411Z,101456.97
2022-09-12T13:28:27.826Z,101428.66
2022-09-12T13:31:10.501Z,101396.22
2022-09-12T13:33:43.462Z,101414.34
2022-09-12T13:36:42.301Z,101445.44
2022-09-12T13:39:16.778Z,101421.38
2022-09-12T13:42:03.833Z,101384.38
2022-09-12T13:44:36.479Z,101374.19
2022-09-12T13:47:04.739Z,101372.94
2022-09-12T13:49:37.022Z,101389.44
2022-09-12T13:52:08.533Z,101404.06
2022-09-12T13:54:39.407Z,101434.47
2022-09-12T13:57:07.279Z,101420.09
2022-09-12T13:59:40.107Z,101424.78
2022-09-12T14:02:19.587Z,101428.03
2022-09-12T14:05:09.252Z,101430.59
2022-09-12T14:07:47.919Z,101433.28
2022-09-12T14:10:28.719Z,101428.50
2022-09-12T14:12:58.798Z,101409.81
2022-09-12T14:15:31.098Z,101401.25
2022-09-12T14:18:01.784Z,101408.88
2022-09-12T14:20:32.995Z,101406.44
2022-09-12T14:23:04.147Z,101369.69
2022-09-12T14:25:39.012Z,101362.88
2022-09-12T14:28:07.267Z,101357.25
2022-09-12T14:30:37.355Z,101338.13
2022-09-12T14:33:17.797Z,101330.88
2022-09-12T14:35:50.509Z,101349.94
2022-09-12T14:38:32.361Z,101363.09
2022-09-12T14:41:04.174Z,101341.03
2022-09-12T14:43:33.780Z,101326.06
2022-09-12T14:46:04.444Z,101313.03
2022-09-12T14:48:36.373Z,101280.97
2022-09-12T14:51:07.119Z,101276.63
2022-09-12T14:53:37.320Z,101262.38
2022-09-12T14:56:09.931Z,101258.78
2022-09-12T14:58:38.391Z,101304.63
2022-09-12T15:01:25.542Z,101308.22
2022-09-12T15:03:56.446Z,101307.19
2022-09-12T15:06:29.467Z,101319.88
2022-09-12T15:08:59.433Z,101297.03
2022-09-12T15:11:27.211Z,101306.16
2022-09-12T15:13:55.811Z,101300.13
2022-09-12T15:16:23.587Z,101303.75
2022-09-12T15:18:51.439Z,101311.56
2022-09-12T15:21:21.343Z,101320.72
2022-09-12T15:23:51.715Z,101337.69
2022-09-12T15:26:21.744Z,101337.56
2022-09-12T15:28:49.822Z,101383.19
2022-09-12T15:31:25.246Z,101378.84
2022-09-12T15:33:53.052Z,101389.25
2022-09-12T15:36:22.841Z,101387.19
2022-09-12T15:38:53.459Z,101383.41
2022-09-12T15:41:22.906Z,101390.91
2022-09-12T15:43:51.280Z,101397.97
2022-09-12T15:46:20.346Z,101386.31
2022-09-12T15:48:48.166Z,101385.31
2022-09-12T15:51:18.320Z,101386.97
2022-09-12T15:53:47.493Z,101377.56
2022-09-12T15:56:17.536Z,101381.22
2022-09-12T15:58:57.803Z,101387.56
2022-09-12T16:01:27.362Z,101384.06
2022-09-12T16:03:55.158Z,101398.38
2022-09-12T16:06:23.493Z,101393.16
2022-09-12T16:08:51.198Z,101392.66
2022-09-12T16:11:23.544Z,101386.81
2022-09-12T16:13:53.193Z,101379.00
2022-09-12T16:16:21.108Z,101384.09
2022-09-12T16:18:48.961Z,101383.09
2022-09-12T16:21:16.836Z,101383.41
2022-09-12T16:23:44.789Z,101372.16
2022-09-12T16:26:12.581Z,101376.16
2022-09-12T16:28:41.771Z,101368.25
2022-09-12T16:31:11.890Z,101358.91
2022-09-12T16:33:41.023Z,101349.44
2022-09-12T16:36:10.889Z,101349.16
2022-09-12T16:38:42.695Z,101343.09
2022-09-12T16:41:10.594Z,101335.75
2022-09-12T16:43:38.687Z,101322.13
2022-09-12T16:46:10.363Z,101321.53
2022-09-12T16:48:38.936Z,101306.66
2022-09-12T16:51:07.758Z,101302.00
2022-09-12T16:53:37.241Z,101292.19
2022-09-12T16:56:05.589Z,101279.75
2022-09-12T16:58:37.426Z,101287.66
2022-09-12T17:01:10.603Z,101264.06
2022-09-12T17:03:38.428Z,101258.88
2022-09-12T17:06:08.851Z,101250.28
2022-09-12T17:08:39.844Z,101238.84
2022-09-12T17:11:09.786Z,101222.69
2022-09-12T17:14:02.760Z,101227.63
2022-09-12T17:16:28.433Z,101205.69
2022-09-12T17:18:56.404Z,101219.78
2022-09-12T17:21:24.321Z,101212.59
2022-09-12T17:23:52.202Z,101210.59
2022-09-12T17:26:20.772Z,101191.00
2022-09-12T17:28:48.823Z,101201.19
2022-09-12T17:31:17.178Z,101185.47
2022-09-12T17:33:46.605Z,101182.16
2022-09-12T17:36:16.711Z,101169.91
2022-09-12T17:38:46.387Z,101152.81
2022-09-12T17:41:17.546Z,101152.63
2022-09-12T17:43:46.387Z,101142.88
2022-09-12T17:46:14.278Z,101122.94
2022-09-12T17:48:42.202Z,101122.72
2022-09-12T17:51:13.401Z,101117.16
2022-09-12T17:53:41.623Z,101119.44
2022-09-12T17:56:10.271Z,101120.56
2022-09-12T17:58:38.670Z,101089.13
2022-09-12T18:01:26.450Z,101106.28
2022-09-12T18:03:55.624Z,101118.91
2022-09-12T18:06:24.937Z,101104.19
2022-09-12T18:08:53.204Z,101096.28
2022-09-12T18:11:20.952Z,101084.19
2022-09-12T18:13:48.771Z,101096.56
2022-09-12T18:16:16.866Z,101084.47
2022-09-12T18:18:44.602Z,101081.75
2022-09-12T18:21:13.448Z,101087.09
2022-09-12T18:23:42.492Z,101071.06
2022-09-12T18:26:13.572Z,101074.47
2022-09-12T18:28:43.870Z,101068.88
2022-09-12T18:31:13.814Z,101067.09
2022-09-12T18:33:42.243Z,101049.44
2022-09-12T18:36:12.057Z,101041.09
2022-09-12T18:38:41.017Z,101039.72
2022-09-12T18:41:11.781Z,101025.03
2022-09-12T18:43:39.786Z,101026.28
2022-09-12T18:46:09.071Z,101033.31
2022-09-12T18:48:37.161Z,101022.41
2022-09-12T18:51:07.955Z,101013.34
2022-09-12T18:53:36.767Z,101006.78
2022-09-12T18:56:08.594Z,101003.38
2022-09-12T18:58:37.964Z,100987.84
2022-09-12T19:01:13.534Z,100980.69
2022-09-12T19:03:41.960Z,100987.91
2022-09-12T19:06:11.863Z,100978.41
2022-09-12T19:08:40.598Z,100981.19
2022-09-12T19:11:09.251Z,100969.91
2022-09-12T19:13:41.191Z,100968.69
2022-09-12T19:16:11.903Z,100950.50
2022-09-12T19:18:40.955Z,100944.44
2022-09-12T19:21:13.688Z,100933.53
2022-09-12T19:23:41.452Z,100912.56
2022-09-12T19:26:11.698Z,100894.53
2022-09-12T19:28:40.861Z,100883.22
2022-09-12T19:31:10.298Z,100865.66
2022-09-12T19:33:38.546Z,100856.03
2022-09-12T19:36:17.499Z,100852.19
2022-09-12T19:38:55.220Z,100835.47
2022-09-12T19:41:22.935Z,100831.25
2022-09-12T19:43:51.966Z,100835.53
2022-09-12T19:46:21.738Z,100828.69
2022-09-12T19:48:50.218Z,100838.91
2022-09-12T19:51:18.606Z,100841.41
2022-09-12T19:53:46.738Z,100854.25
2022-09-12T19:56:15.997Z,100824.56
2022-09-12T19:58:46.053Z,100829.25
2022-09-12T20:01:17.074Z,100824.56
2022-09-12T20:03:45.926Z,100834.22
2022-09-12T20:06:15.728Z,100843.22
2022-09-12T20:08:44.063Z,100843.81
2022-09-12T20:11:13.511Z,100830.59
2022-09-12T20:13:41.700Z,100836.97
2022-09-12T20:16:10.675Z,100846.94
2022-09-12T20:18:40.050Z,100865.38
2022-09-12T20:21:12.590Z,100838.94
2022-09-12T20:23:41.381Z,100853.41
2022-09-12T20:26:09.576Z,100846.88
2022-09-12T20:28:37.397Z,100830.97
2022-09-12T20:31:07.307Z,100805.44
2022-09-12T20:33:35.180Z,100798.91
2022-09-12T20:36:06.572Z,100795.03
2022-09-12T20:38:34.742Z,100794.53
2022-09-12T20:41:03.387Z,100805.81
2022-09-12T20:43:31.438Z,100798.69
2022-09-12T20:45:59.200Z,100771.06
2022-09-12T20:48:26.939Z,100747.03
2022-09-12T20:50:54.599Z,100761.72
2022-09-12T20:53:24.303Z,100760.97
2022-09-12T20:55:52.781Z,100753.66
2022-09-12T20:58:21.314Z,100736.22
2022-09-12T21:00:49.523Z,100729.00
2022-09-12T21:03:17.913Z,100727.50
2022-09-12T21:05:46.046Z,100726.22
2022-09-12T21:08:14.536Z,100736.38
2022-09-12T21:10:44.551Z,100749.06
2022-09-12T21:13:14.041Z,100723.09
2022-09-12T21:15:42.603Z,100708.03
2022-09-12T21:18:10.535Z,100720.75
2022-09-12T21:20:38.221Z,100727.81
2022-09-12T21:23:05.979Z,100727.28
2022-09-12T21:25:33.695Z,100716.91
2022-09-12T21:28:03.341Z,100708.94
2022-09-12T21:30:31.034Z,100697.06
2022-09-12T21:32:58.707Z,100691.09
2022-09-12T21:35:26.435Z,100675.19
2022-09-12T21:37:54.158Z,100670.59
2022-09-12T21:40:21.995Z,100666.13
2022-09-12T21:42:50.289Z,100661.00
2022-09-12T21:45:19.867Z,100646.38
2022-09-12T21:47:47.816Z,100652.09
2022-09-12T21:50:15.976Z,100657.19
2022-09-12T21:52:43.807Z,100645.16
2022-09-12T21:55:13.417Z,100655.06
2022-09-12T21:57:41.124Z,100655.09
2022-09-12T22:00:12.920Z,100666.50
2022-09-12T22:02:42.360Z,100660.03
2022-09-12T22:05:10.804Z,100660.78
2022-09-12T22:07:38.570Z,100657.56
2022-09-12T22:10:07.480Z,100656.31
2022-09-12T22:12:35.319Z,100636.66
2022-09-12T22:15:17.420Z,100631.59
2022-09-12T22:17:52.084Z,100609.88
2022-09-12T22:20:19.768Z,100612.81
2022-09-12T22:23:23.806Z,100607.75
2022-09-12T22:25:55.104Z,100595.91
2022-09-12T22:28:23.191Z,100591.00
2022-09-12T22:30:50.877Z,100587.81
2022-09-12T22:33:19.955Z,100578.19
2022-09-12T22:35:47.798Z,100571.28
2022-09-12T22:38:15.483Z,100583.44
2022-09-12T22:40:43.191Z,100562.94
2022-09-12T22:43:11.503Z,100557.81
2022-09-12T22:45:41.796Z,100559.44
2022-09-12T22:48:09.600Z,100553.59
2022-09-12T22:50:38.648Z,100568.22
2022-09-12T22:53:06.372Z,100566.53
2022-09-12T22:55:34.435Z,100559.97
2022-09-12T22:58:03.587Z,100561.28
2022-09-12T23:00:31.407Z,100543.41
2022-09-12T23:02:59.327Z,100569.31
2022-09-12T23:05:27.078Z,100548.09
2022-09-12T23:07:56.331Z,100554.34
2022-09-12T23:10:26.029Z,100545.72
2022-09-12T23:12:53.741Z,100544.34
2022-09-12T23:15:21.461Z,100525.50
2022-09-12T23:17:49.261Z,100518.06
2022-09-12T23:20:17.130Z,100498.75
2022-09-12T23:22:44.817Z,100499.69
2022-09-12T23:25:14.333Z,100491.94
2022-09-12T23:27:42.499Z,100481.97
2022-09-12T23:30:11.112Z,100482.50
2022-09-12T23:32:38.843Z,100487.81
2022-09-12T23:35:07.202Z,100487.44
2022-09-12T23:37:34.912Z,100502.94
2022-09-12T23:40:03.090Z,100497.81
2022-09-12T23:42:32.191Z,100483.25
2022-09-12T23:44:59.894Z,100473.66
2022-09-12T23:47:27.589Z,100472.09
2022-09-12T23:49:55.294Z,100466.91
2022-09-12T23:52:23.014Z,100465.97
2022-09-12T23:54:50.703Z,100469.88
2022-09-12T23:57:18.384Z,100476.13
2022-09-12T23:59:47.486Z,100476.53
